sensor_id;sensor_type;location;lat;lon;timestamp;P1;durP1;ratioP1;P2;durP2;ratioP2
6346;SDS011;3206;42.666;23.600;2022-08-03T00:01:02;0.82;;;0.82;;
6346;SDS011;3206;42.666;23.600;2022-08-03T00:03:29;2.10;;;1.90;;
6346;SDS011;3206;42.666;23.600;2022-08-03T00:05:58;0.47;;;0.47;;
6346;SDS011;3206;42.666;23.600;2022-08-03T00:08:24;1.75;;;1.20;;
6346;SDS011;3206;42.666;23.600;2022-08-03T00:10:51;0.75;;;0.75;;
6346;SDS011;3206;42.666;23.600;2022-08-03T00:13:18;1.27;;;1.27;;
6346;SDS011;3206;42.666;23.600;2022-08-03T00:15:44;0.57;;;0.57;;
6346;SDS011;3206;42.666;23.600;2022-08-03T00:18:11;1.30;;;1.20;;
6346;SDS011;3206;42.666;23.600;2022-08-03T00:20:38;1.20;;;1.15;;
6346;SDS011;3206;42.666;23.600;2022-08-03T00:23:06;1.00;;;0.90;;
6346;SDS011;3206;42.666;23.600;2022-08-03T00:25:33;1.83;;;1.55;;
6346;SDS011;3206;42.666;23.600;2022-08-03T00:28:00;1.00;;;0.80;;
6346;SDS011;3206;42.666;23.600;2022-08-03T00:30:27;1.85;;;1.60;;
6346;SDS011;3206;42.666;23.600;2022-08-03T00:32:54;0.80;;;0.80;;
6346;SDS011;3206;42.666;23.600;2022-08-03T00:35:21;1.98;;;1.17;;
6346;SDS011;3206;42.666;23.600;2022-08-03T00:37:47;1.02;;;1.02;;
6346;SDS011;3206;42.666;23.600;2022-08-03T00:40:16;0.90;;;0.90;;
6346;SDS011;3206;42.666;23.600;2022-08-03T00:42:47;2.78;;;0.90;;
6346;SDS011;3206;42.666;23.600;2022-08-03T00:45:16;0.93;;;0.90;;
6346;SDS011;3206;42.666;23.600;2022-08-03T00:47:43;0.65;;;0.65;;
6346;SDS011;3206;42.666;23.600;2022-08-03T00:50:10;1.50;;;1.02;;
6346;SDS011;3206;42.666;23.600;2022-08-03T00:52:37;1.70;;;1.60;;
6346;SDS011;3206;42.666;23.600;2022-08-03T00:55:04;0.93;;;0.85;;
6346;SDS011;3206;42.666;23.600;2022-08-03T00:57:33;1.25;;;1.17;;
6346;SDS011;3206;42.666;23.600;2022-08-03T00:59:59;1.27;;;1.17;;
6346;SDS011;3206;42.666;23.600;2022-08-03T01:02:26;1.42;;;1.30;;
6346;SDS011;3206;42.666;23.600;2022-08-03T01:04:53;1.00;;;0.90;;
6346;SDS011;3206;42.666;23.600;2022-08-03T01:07:23;2.13;;;1.33;;
6346;SDS011;3206;42.666;23.600;2022-08-03T01:09:56;1.10;;;1.08;;
6346;SDS011;3206;42.666;23.600;2022-08-03T01:12:31;1.90;;;1.52;;
6346;SDS011;3206;42.666;23.600;2022-08-03T01:15:05;1.17;;;1.05;;
6346;SDS011;3206;42.666;23.600;2022-08-03T01:17:39;1.52;;;1.42;;
6346;SDS011;3206;42.666;23.600;2022-08-03T01:20:12;0.88;;;0.85;;
6346;SDS011;3206;42.666;23.600;2022-08-03T01:22:51;1.25;;;1.15;;
6346;SDS011;3206;42.666;23.600;2022-08-03T01:25:39;0.98;;;0.93;;
6346;SDS011;3206;42.666;23.600;2022-08-03T01:28:36;0.80;;;0.80;;
6346;SDS011;3206;42.666;23.600;2022-08-03T01:31:14;0.80;;;0.80;;
6346;SDS011;3206;42.666;23.600;2022-08-03T01:33:49;1.17;;;1.08;;
6346;SDS011;3206;42.666;23.600;2022-08-03T01:36:21;1.13;;;0.95;;
6346;SDS011;3206;42.666;23.600;2022-08-03T01:38:51;1.05;;;0.98;;
6346;SDS011;3206;42.666;23.600;2022-08-03T01:41:21;1.13;;;1.02;;
6346;SDS011;3206;42.666;23.600;2022-08-03T01:43:54;1.77;;;1.33;;
6346;SDS011;3206;42.666;23.600;2022-08-03T01:46:24;0.80;;;0.80;;
6346;SDS011;3206;42.666;23.600;2022-08-03T01:48:52;1.15;;;1.05;;
6346;SDS011;3206;42.666;23.600;2022-08-03T01:51:21;1.40;;;1.30;;
6346;SDS011;3206;42.666;23.600;2022-08-03T01:53:48;1.00;;;1.00;;
6346;SDS011;3206;42.666;23.600;2022-08-03T01:56:19;2.08;;;1.60;;
6346;SDS011;3206;42.666;23.600;2022-08-03T01:58:49;2.05;;;1.48;;
6346;SDS011;3206;42.666;23.600;2022-08-03T02:01:17;3.28;;;1.65;;
6346;SDS011;3206;42.666;23.600;2022-08-03T02:03:48;2.63;;;1.30;;
6346;SDS011;3206;42.666;23.600;2022-08-03T02:06:15;1.13;;;0.98;;
6346;SDS011;3206;42.666;23.600;2022-08-03T02:08:45;1.10;;;0.98;;
6346;SDS011;3206;42.666;23.600;2022-08-03T02:11:13;2.17;;;0.95;;
6346;SDS011;3206;42.666;23.600;2022-08-03T02:13:41;0.82;;;0.82;;
6346;SDS011;3206;42.666;23.600;2022-08-03T02:16:09;0.90;;;0.88;;
6346;SDS011;3206;42.666;23.600;2022-08-03T02:18:38;1.23;;;1.13;;
6346;SDS011;3206;42.666;23.600;2022-08-03T02:21:06;2.35;;;1.40;;
6346;SDS011;3206;42.666;23.600;2022-08-03T02:23:35;1.30;;;0.95;;
6346;SDS011;3206;42.666;23.600;2022-08-03T02:26:03;1.17;;;1.05;;
6346;SDS011;3206;42.666;23.600;2022-08-03T02:28:33;1.75;;;1.35;;
6346;SDS011;3206;42.666;23.600;2022-08-03T02:31:01;1.88;;;1.42;;
6346;SDS011;3206;42.666;23.600;2022-08-03T02:33:31;2.40;;;1.25;;
6346;SDS011;3206;42.666;23.600;2022-08-03T02:36:00;1.10;;;1.08;;
6346;SDS011;3206;42.666;23.600;2022-08-03T02:38:32;2.22;;;1.65;;
6346;SDS011;3206;42.666;23.600;2022-08-03T02:41:00;1.00;;;0.90;;
6346;SDS011;3206;42.666;23.600;2022-08-03T02:43:32;2.08;;;1.48;;
6346;SDS011;3206;42.666;23.600;2022-08-03T02:46:03;1.00;;;0.90;;
6346;SDS011;3206;42.666;23.600;2022-08-03T02:48:32;3.95;;;1.73;;
6346;SDS011;3206;42.666;23.600;2022-08-03T02:51:02;0.80;;;0.80;;
6346;SDS011;3206;42.666;23.600;2022-08-03T02:53:31;2.55;;;1.40;;
6346;SDS011;3206;42.666;23.600;2022-08-03T02:55:59;1.08;;;0.73;;
6346;SDS011;3206;42.666;23.600;2022-08-03T02:58:29;1.67;;;1.08;;
6346;SDS011;3206;42.666;23.600;2022-08-03T03:00:56;1.25;;;1.02;;
6346;SDS011;3206;42.666;23.600;2022-08-03T03:03:23;1.42;;;1.30;;
6346;SDS011;3206;42.666;23.600;2022-08-03T03:05:51;1.50;;;1.00;;
6346;SDS011;3206;42.666;23.600;2022-08-03T03:08:19;1.75;;;1.20;;
6346;SDS011;3206;42.666;23.600;2022-08-03T03:10:48;2.35;;;1.33;;
6346;SDS011;3206;42.666;23.600;2022-08-03T03:13:15;0.70;;;0.60;;
6346;SDS011;3206;42.666;23.600;2022-08-03T03:15:44;2.58;;;1.27;;
6346;SDS011;3206;42.666;23.600;2022-08-03T03:18:12;16.52;;;1.10;;
6346;SDS011;3206;42.666;23.600;2022-08-03T03:20:41;2.05;;;1.20;;
6346;SDS011;3206;42.666;23.600;2022-08-03T03:23:10;1.15;;;1.05;;
6346;SDS011;3206;42.666;23.600;2022-08-03T03:25:37;4.07;;;1.98;;
6346;SDS011;3206;42.666;23.600;2022-08-03T03:28:08;0.90;;;0.90;;
6346;SDS011;3206;42.666;23.600;2022-08-03T03:30:36;2.20;;;1.42;;
6346;SDS011;3206;42.666;23.600;2022-08-03T03:33:03;1.40;;;1.05;;
6346;SDS011;3206;42.666;23.600;2022-08-03T03:35:30;3.22;;;1.67;;
6346;SDS011;3206;42.666;23.600;2022-08-03T03:37:57;1.63;;;1.52;;
6346;SDS011;3206;42.666;23.600;2022-08-03T03:40:24;2.60;;;1.30;;
6346;SDS011;3206;42.666;23.600;2022-08-03T03:42:53;1.83;;;1.40;;
6346;SDS011;3206;42.666;23.600;2022-08-03T03:45:21;0.88;;;0.80;;
6346;SDS011;3206;42.666;23.600;2022-08-03T03:47:49;2.33;;;1.23;;
6346;SDS011;3206;42.666;23.600;2022-08-03T03:50:16;1.25;;;1.10;;
6346;SDS011;3206;42.666;23.600;2022-08-03T03:52:44;1.95;;;1.45;;
6346;SDS011;3206;42.666;23.600;2022-08-03T03:55:14;1.30;;;1.20;;
6346;SDS011;3206;42.666;23.600;2022-08-03T03:57:41;4.07;;;1.50;;
6346;SDS011;3206;42.666;23.600;2022-08-03T04:00:08;1.13;;;0.93;;
6346;SDS011;3206;42.666;23.600;2022-08-03T04:02:37;1.85;;;1.13;;
6346;SDS011;3206;42.666;23.600;2022-08-03T04:05:04;1.80;;;1.00;;
6346;SDS011;3206;42.666;23.600;2022-08-03T04:07:51;4.65;;;1.63;;
6346;SDS011;3206;42.666;23.600;2022-08-03T04:10:39;1.27;;;0.70;;
6346;SDS011;3206;42.666;23.600;2022-08-03T04:13:24;1.27;;;0.95;;
6346;SDS011;3206;42.666;23.600;2022-08-03T04:15:54;1.10;;;0.82;;
6346;SDS011;3206;42.666;23.600;2022-08-03T04:18:25;1.13;;;0.88;;
6346;SDS011;3206;42.666;23.600;2022-08-03T04:20:53;1.40;;;1.15;;
6346;SDS011;3206;42.666;23.600;2022-08-03T04:23:21;2.33;;;1.83;;
6346;SDS011;3206;42.666;23.600;2022-08-03T04:25:50;1.75;;;1.20;;
6346;SDS011;3206;42.666;23.600;2022-08-03T04:28:19;4.57;;;1.83;;
6346;SDS011;3206;42.666;23.600;2022-08-03T04:30:48;1.92;;;0.85;;
6346;SDS011;3206;42.666;23.600;2022-08-03T04:33:19;4.78;;;1.88;;
6346;SDS011;3206;42.666;23.600;2022-08-03T04:35:50;5.13;;;1.92;;
6346;SDS011;3206;42.666;23.600;2022-08-03T04:38:22;6.72;;;2.30;;
6346;SDS011;3206;42.666;23.600;2022-08-03T04:40:50;2.28;;;1.55;;
6346;SDS011;3206;42.666;23.600;2022-08-03T04:43:18;3.25;;;1.77;;
6346;SDS011;3206;42.666;23.600;2022-08-03T04:45:47;2.78;;;1.50;;
6346;SDS011;3206;42.666;23.600;2022-08-03T04:48:16;1.90;;;1.50;;
6346;SDS011;3206;42.666;23.600;2022-08-03T04:50:44;0.85;;;0.85;;
6346;SDS011;3206;42.666;23.600;2022-08-03T04:53:14;3.08;;;1.60;;
6346;SDS011;3206;42.666;23.600;2022-08-03T04:55:42;3.95;;;2.08;;
6346;SDS011;3206;42.666;23.600;2022-08-03T04:58:09;1.75;;;1.02;;
6346;SDS011;3206;42.666;23.600;2022-08-03T05:00:36;3.90;;;1.65;;
6346;SDS011;3206;42.666;23.600;2022-08-03T05:03:03;2.03;;;1.35;;
6346;SDS011;3206;42.666;23.600;2022-08-03T05:05:30;3.20;;;1.60;;
6346;SDS011;3206;42.666;23.600;2022-08-03T05:07:57;1.15;;;1.08;;
6346;SDS011;3206;42.666;23.600;2022-08-03T05:10:25;2.03;;;1.40;;
6346;SDS011;3206;42.666;23.600;2022-08-03T05:12:51;0.82;;;0.82;;
6346;SDS011;3206;42.666;23.600;2022-08-03T05:15:18;1.27;;;1.17;;
6346;SDS011;3206;42.666;23.600;2022-08-03T05:17:45;4.60;;;2.25;;
6346;SDS011;3206;42.666;23.600;2022-08-03T05:20:13;2.65;;;1.80;;
6346;SDS011;3206;42.666;23.600;2022-08-03T05:22:39;7.10;;;2.30;;
6346;SDS011;3206;42.666;23.600;2022-08-03T05:25:06;1.20;;;0.93;;
6346;SDS011;3206;42.666;23.600;2022-08-03T05:27:35;5.18;;;1.70;;
6346;SDS011;3206;42.666;23.600;2022-08-03T05:30:01;2.25;;;1.15;;
6346;SDS011;3206;42.666;23.600;2022-08-03T05:32:29;2.22;;;0.95;;
6346;SDS011;3206;42.666;23.600;2022-08-03T05:34:56;1.30;;;1.17;;
6346;SDS011;3206;42.666;23.600;2022-08-03T05:37:23;6.13;;;2.17;;
6346;SDS011;3206;42.666;23.600;2022-08-03T05:39:50;1.55;;;1.20;;
6346;SDS011;3206;42.666;23.600;2022-08-03T05:42:16;1.83;;;1.17;;
6346;SDS011;3206;42.666;23.600;2022-08-03T05:44:44;7.78;;;2.65;;
6346;SDS011;3206;42.666;23.600;2022-08-03T05:47:11;3.38;;;1.75;;
6346;SDS011;3206;42.666;23.600;2022-08-03T05:49:38;4.70;;;1.75;;
6346;SDS011;3206;42.666;23.600;2022-08-03T05:52:05;1.63;;;1.23;;
6346;SDS011;3206;42.666;23.600;2022-08-03T05:54:31;6.65;;;2.85;;
6346;SDS011;3206;42.666;23.600;2022-08-03T05:56:58;7.13;;;1.65;;
6346;SDS011;3206;42.666;23.600;2022-08-03T05:59:25;2.20;;;1.55;;
6346;SDS011;3206;42.666;23.600;2022-08-03T06:01:53;8.48;;;2.70;;
6346;SDS011;3206;42.666;23.600;2022-08-03T06:04:20;3.38;;;1.70;;
6346;SDS011;3206;42.666;23.600;2022-08-03T06:06:46;5.25;;;2.08;;
6346;SDS011;3206;42.666;23.600;2022-08-03T06:09:14;1.95;;;1.67;;
6346;SDS011;3206;42.666;23.600;2022-08-03T06:11:41;8.52;;;2.80;;
6346;SDS011;3206;42.666;23.600;2022-08-03T06:14:08;12.45;;;3.80;;
6346;SDS011;3206;42.666;23.600;2022-08-03T06:16:35;5.32;;;2.05;;
6346;SDS011;3206;42.666;23.600;2022-08-03T06:19:03;3.17;;;1.83;;
6346;SDS011;3206;42.666;23.600;2022-08-03T06:21:29;2.17;;;1.60;;
6346;SDS011;3206;42.666;23.600;2022-08-03T06:23:56;3.47;;;1.80;;
6346;SDS011;3206;42.666;23.600;2022-08-03T06:26:23;1.85;;;1.70;;
6346;SDS011;3206;42.666;23.600;2022-08-03T06:28:51;4.40;;;2.20;;
6346;SDS011;3206;42.666;23.600;2022-08-03T06:31:19;3.63;;;2.15;;
6346;SDS011;3206;42.666;23.600;2022-08-03T06:33:46;1.80;;;1.42;;
6346;SDS011;3206;42.666;23.600;2022-08-03T06:36:14;1.90;;;1.77;;
6346;SDS011;3206;42.666;23.600;2022-08-03T06:38:41;1.60;;;1.40;;
6346;SDS011;3206;42.666;23.600;2022-08-03T06:41:08;2.05;;;1.50;;
6346;SDS011;3206;42.666;23.600;2022-08-03T06:43:34;1.65;;;1.33;;
6346;SDS011;3206;42.666;23.600;2022-08-03T06:46:01;3.53;;;1.92;;
6346;SDS011;3206;42.666;23.600;2022-08-03T06:48:29;1.73;;;1.48;;
6346;SDS011;3206;42.666;23.600;2022-08-03T06:50:56;1.58;;;1.48;;
6346;SDS011;3206;42.666;23.600;2022-08-03T06:53:24;2.90;;;1.90;;
6346;SDS011;3206;42.666;23.600;2022-08-03T06:55:51;3.97;;;2.13;;
6346;SDS011;3206;42.666;23.600;2022-08-03T06:58:18;1.92;;;1.55;;
6346;SDS011;3206;42.666;23.600;2022-08-03T07:00:45;2.40;;;1.45;;
6346;SDS011;3206;42.666;23.600;2022-08-03T07:03:11;1.88;;;1.45;;
6346;SDS011;3206;42.666;23.600;2022-08-03T07:05:39;2.03;;;1.55;;
6346;SDS011;3206;42.666;23.600;2022-08-03T07:08:06;1.55;;;1.30;;
6346;SDS011;3206;42.666;23.600;2022-08-03T07:10:42;3.75;;;1.90;;
6346;SDS011;3206;42.666;23.600;2022-08-03T07:13:09;3.63;;;2.15;;
6346;SDS011;3206;42.666;23.600;2022-08-03T07:15:36;3.08;;;1.75;;
6346;SDS011;3206;42.666;23.600;2022-08-03T07:18:04;2.20;;;1.25;;
6346;SDS011;3206;42.666;23.600;2022-08-03T07:20:31;2.58;;;1.75;;
6346;SDS011;3206;42.666;23.600;2022-08-03T07:22:58;2.25;;;1.85;;
6346;SDS011;3206;42.666;23.600;2022-08-03T07:25:25;1.27;;;1.20;;
6346;SDS011;3206;42.666;23.600;2022-08-03T07:27:53;2.00;;;1.33;;
6346;SDS011;3206;42.666;23.600;2022-08-03T07:30:19;1.98;;;1.50;;
6346;SDS011;3206;42.666;23.600;2022-08-03T07:32:46;1.65;;;1.50;;
6346;SDS011;3206;42.666;23.600;2022-08-03T07:35:13;2.55;;;2.00;;
6346;SDS011;3206;42.666;23.600;2022-08-03T07:37:39;1.63;;;1.40;;
6346;SDS011;3206;42.666;23.600;2022-08-03T07:40:06;4.05;;;1.98;;
6346;SDS011;3206;42.666;23.600;2022-08-03T07:42:33;2.42;;;1.70;;
6346;SDS011;3206;42.666;23.600;2022-08-03T07:45:01;1.67;;;1.58;;
6346;SDS011;3206;42.666;23.600;2022-08-03T07:47:29;2.70;;;1.90;;
6346;SDS011;3206;42.666;23.600;2022-08-03T07:49:56;3.50;;;2.05;;
6346;SDS011;3206;42.666;23.600;2022-08-03T07:52:23;2.92;;;2.17;;
6346;SDS011;3206;42.666;23.600;2022-08-03T07:55:07;2.65;;;2.03;;
6346;SDS011;3206;42.666;23.600;2022-08-03T07:57:35;1.90;;;1.52;;
6346;SDS011;3206;42.666;23.600;2022-08-03T08:00:04;2.35;;;1.45;;
6346;SDS011;3206;42.666;23.600;2022-08-03T08:02:34;1.55;;;1.45;;
6346;SDS011;3206;42.666;23.600;2022-08-03T08:05:00;4.25;;;2.20;;
6346;SDS011;3206;42.666;23.600;2022-08-03T08:07:27;2.50;;;1.92;;
6346;SDS011;3206;42.666;23.600;2022-08-03T08:09:54;3.80;;;2.47;;
6346;SDS011;3206;42.666;23.600;2022-08-03T08:12:20;9.40;;;2.33;;
6346;SDS011;3206;42.666;23.600;2022-08-03T08:14:47;1.77;;;1.48;;
6346;SDS011;3206;42.666;23.600;2022-08-03T08:17:15;4.65;;;2.22;;
6346;SDS011;3206;42.666;23.600;2022-08-03T08:19:43;3.13;;;1.63;;
6346;SDS011;3206;42.666;23.600;2022-08-03T08:22:10;2.38;;;1.48;;
6346;SDS011;3206;42.666;23.600;2022-08-03T08:24:36;2.42;;;1.55;;
6346;SDS011;3206;42.666;23.600;2022-08-03T08:27:03;2.33;;;1.67;;
6346;SDS011;3206;42.666;23.600;2022-08-03T08:29:30;2.03;;;1.60;;
6346;SDS011;3206;42.666;23.600;2022-08-03T08:31:56;2.83;;;1.83;;
6346;SDS011;3206;42.666;23.600;2022-08-03T08:34:24;3.47;;;1.92;;
6346;SDS011;3206;42.666;23.600;2022-08-03T08:36:51;1.80;;;1.58;;
6346;SDS011;3206;42.666;23.600;2022-08-03T08:39:18;3.65;;;1.98;;
6346;SDS011;3206;42.666;23.600;2022-08-03T08:41:44;2.45;;;1.95;;
6346;SDS011;3206;42.666;23.600;2022-08-03T08:44:11;2.42;;;1.63;;
6346;SDS011;3206;42.666;23.600;2022-08-03T08:46:38;1.95;;;1.35;;
6346;SDS011;3206;42.666;23.600;2022-08-03T08:49:05;1.98;;;1.30;;
6346;SDS011;3206;42.666;23.600;2022-08-03T08:51:35;1.80;;;1.58;;
6346;SDS011;3206;42.666;23.600;2022-08-03T08:54:06;3.13;;;1.67;;
6346;SDS011;3206;42.666;23.600;2022-08-03T08:56:33;2.22;;;1.50;;
6346;SDS011;3206;42.666;23.600;2022-08-03T08:59:02;5.47;;;2.58;;
6346;SDS011;3206;42.666;23.600;2022-08-03T09:01:29;6.88;;;2.50;;
6346;SDS011;3206;42.666;23.600;2022-08-03T09:03:56;6.07;;;2.40;;
6346;SDS011;3206;42.666;23.600;2022-08-03T09:06:23;6.32;;;2.35;;
6346;SDS011;3206;42.666;23.600;2022-08-03T09:08:51;5.65;;;2.08;;
6346;SDS011;3206;42.666;23.600;2022-08-03T09:11:20;7.28;;;2.55;;
6346;SDS011;3206;42.666;23.600;2022-08-03T09:13:48;7.60;;;2.38;;
6346;SDS011;3206;42.666;23.600;2022-08-03T09:16:15;8.57;;;2.47;;
6346;SDS011;3206;42.666;23.600;2022-08-03T09:18:44;10.85;;;2.47;;
6346;SDS011;3206;42.666;23.600;2022-08-03T09:21:16;2.60;;;1.25;;
6346;SDS011;3206;42.666;23.600;2022-08-03T09:23:45;2.67;;;1.63;;
6346;SDS011;3206;42.666;23.600;2022-08-03T09:26:20;3.45;;;1.45;;
6346;SDS011;3206;42.666;23.600;2022-08-03T09:28:57;4.07;;;1.80;;
6346;SDS011;3206;42.666;23.600;2022-08-03T09:31:29;2.55;;;1.50;;
6346;SDS011;3206;42.666;23.600;2022-08-03T09:33:57;3.30;;;1.70;;
6346;SDS011;3206;42.666;23.600;2022-08-03T09:36:32;3.88;;;1.85;;
6346;SDS011;3206;42.666;23.600;2022-08-03T09:39:00;2.03;;;1.40;;
6346;SDS011;3206;42.666;23.600;2022-08-03T09:41:31;2.60;;;1.63;;
6346;SDS011;3206;42.666;23.600;2022-08-03T09:43:58;6.47;;;1.60;;
6346;SDS011;3206;42.666;23.600;2022-08-03T09:46:25;2.38;;;1.80;;
6346;SDS011;3206;42.666;23.600;2022-08-03T09:49:07;2.28;;;1.50;;
6346;SDS011;3206;42.666;23.600;2022-08-03T09:51:35;5.18;;;1.90;;
6346;SDS011;3206;42.666;23.600;2022-08-03T09:54:02;5.13;;;1.90;;
6346;SDS011;3206;42.666;23.600;2022-08-03T09:56:40;4.20;;;2.08;;
6346;SDS011;3206;42.666;23.600;2022-08-03T09:59:08;2.70;;;1.83;;
6346;SDS011;3206;42.666;23.600;2022-08-03T10:01:36;3.10;;;2.13;;
6346;SDS011;3206;42.666;23.600;2022-08-03T10:04:08;4.10;;;1.50;;
6346;SDS011;3206;42.666;23.600;2022-08-03T10:06:37;4.88;;;2.22;;
6346;SDS011;3206;42.666;23.600;2022-08-03T10:09:05;3.00;;;1.88;;
6346;SDS011;3206;42.666;23.600;2022-08-03T10:11:38;6.35;;;2.35;;
6346;SDS011;3206;42.666;23.600;2022-08-03T10:14:07;5.30;;;2.40;;
6346;SDS011;3206;42.666;23.600;2022-08-03T10:16:36;7.10;;;2.53;;
6346;SDS011;3206;42.666;23.600;2022-08-03T10:19:05;9.30;;;2.65;;
6346;SDS011;3206;42.666;23.600;2022-08-03T10:21:35;8.50;;;2.55;;
6346;SDS011;3206;42.666;23.600;2022-08-03T10:24:04;16.63;;;3.35;;
6346;SDS011;3206;42.666;23.600;2022-08-03T10:26:34;13.75;;;3.47;;
6346;SDS011;3206;42.666;23.600;2022-08-03T10:29:05;14.43;;;3.60;;
6346;SDS011;3206;42.666;23.600;2022-08-03T10:31:37;6.85;;;2.30;;
6346;SDS011;3206;42.666;23.600;2022-08-03T10:34:06;9.93;;;3.03;;
6346;SDS011;3206;42.666;23.600;2022-08-03T10:36:40;5.85;;;1.90;;
6346;SDS011;3206;42.666;23.600;2022-08-03T10:39:09;18.00;;;3.78;;
6346;SDS011;3206;42.666;23.600;2022-08-03T10:41:38;20.55;;;2.92;;
6346;SDS011;3206;42.666;23.600;2022-08-03T10:44:11;13.65;;;2.83;;
6346;SDS011;3206;42.666;23.600;2022-08-03T10:46:43;7.05;;;2.08;;
6346;SDS011;3206;42.666;23.600;2022-08-03T10:49:12;11.82;;;2.60;;
6346;SDS011;3206;42.666;23.600;2022-08-03T10:51:40;8.07;;;2.50;;
6346;SDS011;3206;42.666;23.600;2022-08-03T10:54:07;3.50;;;1.45;;
6346;SDS011;3206;42.666;23.600;2022-08-03T11:00:10;6.28;;;2.30;;
6346;SDS011;3206;42.666;23.600;2022-08-03T11:05:27;4.90;;;1.70;;
6346;SDS011;3206;42.666;23.600;2022-08-03T11:10:48;11.10;;;2.30;;
6346;SDS011;3206;42.666;23.600;2022-08-03T11:13:17;9.95;;;1.98;;
6346;SDS011;3206;42.666;23.600;2022-08-03T11:15:47;5.93;;;1.63;;
6346;SDS011;3206;42.666;23.600;2022-08-03T11:18:15;16.05;;;2.47;;
6346;SDS011;3206;42.666;23.600;2022-08-03T11:20:43;5.35;;;1.83;;
6346;SDS011;3206;42.666;23.600;2022-08-03T11:23:13;7.05;;;1.92;;
6346;SDS011;3206;42.666;23.600;2022-08-03T11:28:35;16.55;;;2.35;;
6346;SDS011;3206;42.666;23.600;2022-08-03T11:34:15;3.13;;;1.40;;
6346;SDS011;3206;42.666;23.600;2022-08-03T11:39:48;2.67;;;1.80;;
6346;SDS011;3206;42.666;23.600;2022-08-03T11:42:39;4.53;;;2.25;;
6346;SDS011;3206;42.666;23.600;2022-08-03T11:45:08;3.63;;;2.33;;
6346;SDS011;3206;42.666;23.600;2022-08-03T11:47:39;2.67;;;1.88;;
6346;SDS011;3206;42.666;23.600;2022-08-03T11:50:08;3.08;;;2.05;;
6346;SDS011;3206;42.666;23.600;2022-08-03T11:52:37;4.22;;;2.78;;
6346;SDS011;3206;42.666;23.600;2022-08-03T11:55:07;4.82;;;2.80;;
6346;SDS011;3206;42.666;23.600;2022-08-03T11:57:39;3.22;;;2.13;;
6346;SDS011;3206;42.666;23.600;2022-08-03T12:00:25;1.85;;;1.67;;
6346;SDS011;3206;42.666;23.600;2022-08-03T12:02:56;3.42;;;2.00;;
6346;SDS011;3206;42.666;23.600;2022-08-03T12:05:38;4.43;;;2.30;;
6346;SDS011;3206;42.666;23.600;2022-08-03T12:08:07;4.68;;;2.13;;
6346;SDS011;3206;42.666;23.600;2022-08-03T12:10:34;4.32;;;1.83;;
6346;SDS011;3206;42.666;23.600;2022-08-03T12:13:02;13.57;;;2.88;;
6346;SDS011;3206;42.666;23.600;2022-08-03T12:15:32;15.00;;;3.00;;
6346;SDS011;3206;42.666;23.600;2022-08-03T12:18:02;18.23;;;3.33;;
6346;SDS011;3206;42.666;23.600;2022-08-03T12:20:37;3.78;;;1.70;;
6346;SDS011;3206;42.666;23.600;2022-08-03T12:23:04;11.70;;;2.72;;
6346;SDS011;3206;42.666;23.600;2022-08-03T12:25:32;3.50;;;1.50;;
6346;SDS011;3206;42.666;23.600;2022-08-03T12:28:07;11.60;;;2.70;;
6346;SDS011;3206;42.666;23.600;2022-08-03T12:30:40;5.28;;;2.22;;
6346;SDS011;3206;42.666;23.600;2022-08-03T12:33:16;7.50;;;2.50;;
6346;SDS011;3206;42.666;23.600;2022-08-03T12:35:48;5.10;;;2.15;;
6346;SDS011;3206;42.666;23.600;2022-08-03T12:38:27;10.32;;;2.85;;
6346;SDS011;3206;42.666;23.600;2022-08-03T12:40:55;7.05;;;2.25;;
6346;SDS011;3206;42.666;23.600;2022-08-03T12:43:22;3.75;;;2.00;;
6346;SDS011;3206;42.666;23.600;2022-08-03T12:45:50;6.30;;;2.47;;
6346;SDS011;3206;42.666;23.600;2022-08-03T12:48:18;6.38;;;2.42;;
6346;SDS011;3206;42.666;23.600;2022-08-03T12:50:45;5.25;;;2.55;;
6346;SDS011;3206;42.666;23.600;2022-08-03T12:53:11;6.18;;;2.33;;
6346;SDS011;3206;42.666;23.600;2022-08-03T12:55:59;6.20;;;3.03;;
6346;SDS011;3206;42.666;23.600;2022-08-03T12:58:30;3.83;;;2.03;;
6346;SDS011;3206;42.666;23.600;2022-08-03T13:00:58;2.80;;;1.85;;
6346;SDS011;3206;42.666;23.600;2022-08-03T13:03:26;4.22;;;2.50;;
6346;SDS011;3206;42.666;23.600;2022-08-03T13:05:53;7.45;;;3.65;;
6346;SDS011;3206;42.666;23.600;2022-08-03T13:08:21;3.33;;;2.40;;
6346;SDS011;3206;42.666;23.600;2022-08-03T13:10:49;5.43;;;2.95;;
6346;SDS011;3206;42.666;23.600;2022-08-03T13:13:16;3.13;;;2.50;;
6346;SDS011;3206;42.666;23.600;2022-08-03T13:15:44;2.30;;;2.03;;
6346;SDS011;3206;42.666;23.600;2022-08-03T13:18:11;4.15;;;2.92;;
6346;SDS011;3206;42.666;23.600;2022-08-03T13:20:39;2.33;;;1.67;;
6346;SDS011;3206;42.666;23.600;2022-08-03T13:23:07;3.58;;;2.50;;
6346;SDS011;3206;42.666;23.600;2022-08-03T13:25:34;2.90;;;2.10;;
6346;SDS011;3206;42.666;23.600;2022-08-03T13:28:01;3.25;;;2.15;;
6346;SDS011;3206;42.666;23.600;2022-08-03T13:30:30;1.85;;;1.70;;
6346;SDS011;3206;42.666;23.600;2022-08-03T13:32:57;10.05;;;2.00;;
6346;SDS011;3206;42.666;23.600;2022-08-03T13:35:24;4.82;;;2.28;;
6346;SDS011;3206;42.666;23.600;2022-08-03T13:37:52;3.67;;;2.35;;
6346;SDS011;3206;42.666;23.600;2022-08-03T13:40:19;2.53;;;2.17;;
6346;SDS011;3206;42.666;23.600;2022-08-03T13:42:46;2.80;;;2.10;;
6346;SDS011;3206;42.666;23.600;2022-08-03T13:45:13;3.20;;;2.53;;
6346;SDS011;3206;42.666;23.600;2022-08-03T13:47:39;2.90;;;2.10;;
6346;SDS011;3206;42.666;23.600;2022-08-03T13:50:06;3.63;;;2.70;;
6346;SDS011;3206;42.666;23.600;2022-08-03T13:52:34;2.30;;;1.80;;
6346;SDS011;3206;42.666;23.600;2022-08-03T13:55:03;2.40;;;2.03;;
6346;SDS011;3206;42.666;23.600;2022-08-03T13:57:31;6.68;;;2.30;;
6346;SDS011;3206;42.666;23.600;2022-08-03T13:59:58;3.05;;;2.55;;
6346;SDS011;3206;42.666;23.600;2022-08-03T14:02:25;3.17;;;1.95;;
6346;SDS011;3206;42.666;23.600;2022-08-03T14:04:51;3.20;;;2.17;;
6346;SDS011;3206;42.666;23.600;2022-08-03T14:07:18;2.85;;;2.10;;
6346;SDS011;3206;42.666;23.600;2022-08-03T14:09:45;2.80;;;2.03;;
6346;SDS011;3206;42.666;23.600;2022-08-03T14:12:13;3.08;;;2.65;;
6346;SDS011;3206;42.666;23.600;2022-08-03T14:14:40;4.65;;;2.53;;
6346;SDS011;3206;42.666;23.600;2022-08-03T14:17:06;3.50;;;2.38;;
6346;SDS011;3206;42.666;23.600;2022-08-03T14:19:33;2.40;;;2.10;;
6346;SDS011;3206;42.666;23.600;2022-08-03T14:22:00;2.00;;;1.80;;
6346;SDS011;3206;42.666;23.600;2022-08-03T14:24:26;2.45;;;1.90;;
6346;SDS011;3206;42.666;23.600;2022-08-03T14:26:53;8.13;;;2.20;;
6346;SDS011;3206;42.666;23.600;2022-08-03T14:29:21;2.83;;;2.22;;
6346;SDS011;3206;42.666;23.600;2022-08-03T14:31:48;3.78;;;2.53;;
6346;SDS011;3206;42.666;23.600;2022-08-03T14:34:15;3.47;;;2.53;;
6346;SDS011;3206;42.666;23.600;2022-08-03T14:36:41;4.82;;;4.10;;
6346;SDS011;3206;42.666;23.600;2022-08-03T14:39:08;5.28;;;2.78;;
6346;SDS011;3206;42.666;23.600;2022-08-03T14:41:35;5.10;;;2.75;;
6346;SDS011;3206;42.666;23.600;2022-08-03T14:44:01;2.17;;;1.95;;
6346;SDS011;3206;42.666;23.600;2022-08-03T14:46:30;3.55;;;1.98;;
6346;SDS011;3206;42.666;23.600;2022-08-03T14:48:57;2.10;;;1.90;;
6346;SDS011;3206;42.666;23.600;2022-08-03T14:51:24;4.57;;;2.33;;
6346;SDS011;3206;42.666;23.600;2022-08-03T14:53:50;3.35;;;2.35;;
6346;SDS011;3206;42.666;23.600;2022-08-03T14:56:17;4.20;;;2.70;;
6346;SDS011;3206;42.666;23.600;2022-08-03T14:58:44;2.15;;;1.67;;
6346;SDS011;3206;42.666;23.600;2022-08-03T15:01:10;2.83;;;1.95;;
6346;SDS011;3206;42.666;23.600;2022-08-03T15:03:38;3.65;;;2.35;;
6346;SDS011;3206;42.666;23.600;2022-08-03T15:06:05;2.70;;;1.92;;
6346;SDS011;3206;42.666;23.600;2022-08-03T15:08:32;3.47;;;2.22;;
6346;SDS011;3206;42.666;23.600;2022-08-03T15:10:59;2.20;;;1.80;;
6346;SDS011;3206;42.666;23.600;2022-08-03T15:13:25;2.40;;;1.70;;
6346;SDS011;3206;42.666;23.600;2022-08-03T15:15:52;2.97;;;1.90;;
6346;SDS011;3206;42.666;23.600;2022-08-03T15:18:19;3.25;;;2.30;;
6346;SDS011;3206;42.666;23.600;2022-08-03T15:20:47;3.00;;;2.35;;
6346;SDS011;3206;42.666;23.600;2022-08-03T15:23:14;3.08;;;2.20;;
6346;SDS011;3206;42.666;23.600;2022-08-03T15:25:42;2.90;;;2.05;;
6346;SDS011;3206;42.666;23.600;2022-08-03T15:28:09;1.73;;;1.63;;